Time;durP1;ratioP1;P1;durP2;ratioP2;P2;SDS_P1;SDS_P2;PMS_P1;PMS_P2;Temp;Humidity;BMP_temperature;BMP_pressure;BME280_temperature;BME280_humidity;BME280_pressure;Samples;Min_cycle;Max_cycle;Signal;HPM_P1;HPM_P2
2023/09/22 00:02:00;;;;;;;1.00;0.70;;;;;;;17.13;nan;98249.50;5047851;28;20202;-80
2023/09/22 00:04:26;;;;;;;1.77;0.87;;;;;;;17.10;nan;98249.84;5051843;28;20456;-79
2023/09/22 00:06:51;;;;;;;0.93;0.83;;;;;;;17.09;nan;98252.66;5050630;28;20704;-79
2023/09/22 00:09:19;;;;;;;1.70;0.90;;;;;;;17.05;nan;98259.34;5060249;28;20201;-80
2023/09/22 00:11:45;;;;;;;1.60;0.80;;;;;;;17.04;nan;98274.44;5051062;28;20194;-80
2023/09/22 00:14:10;;;;;;;0.70;0.70;;;;;;;17.07;nan;98270.59;5060034;28;20471;-80
2023/09/22 00:16:36;;;;;;;1.47;0.80;;;;;;;17.11;nan;98269.25;5058359;28;20198;-80
2023/09/22 00:19:05;;;;;;;1.03;0.80;;;;;;;17.12;nan;98266.44;5051325;28;20200;-80
2023/09/22 00:21:33;;;;;;;1.57;0.87;;;;;;;17.13;nan;98272.56;5049513;28;20197;-80
2023/09/22 00:23:59;;;;;;;1.10;0.90;;;;;;;17.14;nan;98253.81;5053352;28;20440;-80
2023/09/22 00:26:25;;;;;;;1.70;0.70;;;;;;;17.16;nan;98264.25;5057432;28;20558;-80
2023/09/22 00:28:50;;;;;;;2.57;1.00;;;;;;;17.16;nan;98269.56;5048515;28;20631;-80
2023/09/22 00:31:16;;;;;;;1.43;0.70;;;;;;;17.16;nan;98266.91;5047493;28;20456;-80
2023/09/22 00:33:41;;;;;;;1.00;0.80;;;;;;;17.16;nan;98273.03;5029848;28;20201;-81
2023/09/22 00:36:07;;;;;;;0.97;0.70;;;;;;;17.16;nan;98288.13;5033768;28;20426;-81
2023/09/22 00:38:32;;;;;;;1.23;0.70;;;;;;;17.14;nan;98296.25;5050265;28;20478;-80
2023/09/22 00:40:58;;;;;;;2.80;1.13;;;;;;;17.13;nan;98289.31;5060442;28;20186;-80
2023/09/22 00:43:23;;;;;;;1.00;0.90;;;;;;;17.12;nan;98286.81;5060621;28;20206;-81
2023/09/22 00:45:52;;;;;;;1.30;0.93;;;;;;;17.06;nan;98287.50;5051737;28;20189;-80
2023/09/22 00:48:21;;;;;;;1.17;0.90;;;;;;;16.98;nan;98280.41;5031041;28;20261;-81
2023/09/22 00:50:47;;;;;;;1.00;0.80;;;;;;;16.97;nan;98268.97;5045369;28;20455;-80
2023/09/22 00:53:14;;;;;;;4.53;1.10;;;;;;;16.96;nan;98272.63;5031520;28;20447;-80
2023/09/22 00:55:40;;;;;;;1.10;1.00;;;;;;;16.96;nan;98275.28;5047745;28;20475;-80
2023/09/22 00:58:07;;;;;;;0.93;0.80;;;;;;;16.96;nan;98283.25;5054166;28;20193;-81
2023/09/22 01:00:34;;;;;;;1.43;0.83;;;;;;;16.95;nan;98249.72;5051518;28;20477;-80
2023/09/22 01:03:00;;;;;;;1.83;0.90;;;;;;;16.94;nan;98248.09;5045208;28;20204;-81
2023/09/22 01:05:26;;;;;;;1.73;1.00;;;;;;;16.95;nan;98248.91;5052653;28;20761;-80
2023/09/22 01:07:51;;;;;;;2.10;1.90;;;;;;;16.95;nan;98243.59;5052847;28;20200;-80
2023/09/22 01:10:17;;;;;;;1.13;0.80;;;;;;;16.95;nan;98236.47;5031596;28;20486;-80
2023/09/22 01:12:43;;;;;;;0.80;0.80;;;;;;;16.96;nan;98235.50;5051375;28;20981;-81
2023/09/22 01:15:09;;;;;;;1.47;0.87;;;;;;;16.98;nan;98233.47;5047175;28;20210;-80
2023/09/22 01:17:35;;;;;;;1.40;0.77;;;;;;;16.98;nan;98217.56;5034781;28;20202;-80
2023/09/22 01:20:03;;;;;;;1.93;0.77;;;;;;;16.98;nan;98237.97;5035488;28;20457;-81
2023/09/22 01:22:28;;;;;;;2.73;0.97;;;;;;;16.99;nan;98232.50;5047361;28;20467;-82
2023/09/22 01:24:55;;;;;;;1.20;0.90;;;;;;;16.98;nan;98237.97;5052504;28;21062;-81
2023/09/22 01:27:21;;;;;;;3.83;1.20;;;;;;;16.98;nan;98248.56;5053791;28;20211;-80
2023/09/22 01:29:46;;;;;;;1.20;0.90;;;;;;;16.98;nan;98254.69;5054365;28;20463;-80
2023/09/22 01:32:11;;;;;;;1.30;0.83;;;;;;;16.97;nan;98255.69;5053371;28;20296;-80
2023/09/22 01:34:37;;;;;;;3.23;1.27;;;;;;;16.95;nan;98254.22;5049137;28;20216;-80
2023/09/22 01:37:07;;;;;;;2.50;1.10;;;;;;;16.95;nan;98244.44;5028150;28;20438;-81
2023/09/22 01:39:34;;;;;;;1.10;0.83;;;;;;;16.94;nan;98249.91;5054815;28;20522;-80
2023/09/22 01:42:00;;;;;;;1.30;1.20;;;;;;;16.92;nan;98244.78;5051976;28;20474;-80
2023/09/22 01:44:25;;;;;;;1.70;0.90;;;;;;;16.93;nan;98240.28;5038591;28;20447;-79
2023/09/22 01:46:51;;;;;;;1.90;0.87;;;;;;;16.95;nan;98259.53;5036511;28;20206;-80
2023/09/22 01:49:16;;;;;;;1.87;0.83;;;;;;;16.95;nan;98262.19;5035507;28;20194;-80
2023/09/22 01:51:42;;;;;;;2.30;1.00;;;;;;;16.98;nan;98253.88;5029107;28;20197;-79
2023/09/22 01:54:07;;;;;;;2.17;1.37;;;;;;;16.97;nan;98257.53;5047894;28;20224;-80
2023/09/22 01:56:34;;;;;;;2.10;0.87;;;;;;;16.95;nan;98255.03;5036012;28;20223;-80
2023/09/22 01:58:59;;;;;;;4.17;0.90;;;;;;;16.93;nan;98259.72;5033868;28;20800;-79
2023/09/22 02:01:27;;;;;;;1.30;0.90;;;;;;;16.93;nan;98249.09;5056079;28;20486;-79
2023/09/22 02:03:53;;;;;;;1.63;0.70;;;;;;;16.94;nan;98247.28;5032951;28;20193;-80
2023/09/22 02:06:18;;;;;;;2.63;1.40;;;;;;;16.94;nan;98239.31;5052958;28;20459;-79
2023/09/22 02:08:44;;;;;;;1.10;0.80;;;;;;;16.94;nan;98224.22;5040598;28;20208;-79
2023/09/22 02:11:11;;;;;;;2.67;0.87;;;;;;;16.93;nan;98230.53;5035661;28;20205;-80
2023/09/22 02:13:37;;;;;;;1.47;0.70;;;;;;;16.90;nan;98227.38;5048901;28;20248;-81
2023/09/22 02:16:03;;;;;;;1.13;0.90;;;;;;;16.85;nan;98235.03;5029652;28;20460;-79
2023/09/22 02:18:29;;;;;;;1.40;1.00;;;;;;;16.83;nan;98235.22;5036112;28;21013;-80
2023/09/22 02:20:54;;;;;;;0.90;0.70;;;;;;;16.80;nan;98240.84;5048129;28;20452;-79
2023/09/22 02:23:20;;;;;;;1.00;0.70;;;;;;;16.78;nan;98234.88;5030444;28;20224;-80
2023/09/22 02:25:46;;;;;;;1.13;0.70;;;;;;;16.73;nan;98224.75;5055607;28;20351;-80
2023/09/22 02:28:12;;;;;;;1.77;0.93;;;;;;;16.68;nan;98224.44;5041035;28;20619;-79
2023/09/22 02:30:37;;;;;;;1.50;0.97;;;;;;;16.62;nan;98211.88;5037465;28;20516;-80
2023/09/22 02:33:04;;;;;;;1.73;0.90;;;;;;;16.58;nan;98211.38;5034756;28;20280;-81
2023/09/22 02:35:29;;;;;;;1.97;0.87;;;;;;;16.56;nan;98223.16;5028965;28;20769;-79
2023/09/22 02:37:56;;;;;;;1.27;0.80;;;;;;;16.58;nan;98235.25;5027002;28;20564;-80
2023/09/22 02:40:21;;;;;;;1.00;0.83;;;;;;;16.61;nan;98250.00;5049186;28;20463;-80
2023/09/22 02:42:47;;;;;;;1.30;1.00;;;;;;;16.65;nan;98251.28;5048255;28;20196;-80
2023/09/22 02:45:13;;;;;;;0.80;0.73;;;;;;;16.68;nan;98258.09;5047726;28;20200;-80
2023/09/22 02:47:40;;;;;;;1.20;0.90;;;;;;;16.72;nan;98268.19;5046005;28;20251;-80
2023/09/22 02:50:09;;;;;;;2.00;0.90;;;;;;;16.74;nan;98252.09;5054910;28;20221;-80
2023/09/22 02:52:38;;;;;;;2.20;0.83;;;;;;;16.77;nan;98265.06;5045886;28;20485;-80
2023/09/22 02:55:07;;;;;;;1.10;1.00;;;;;;;16.77;nan;98252.63;5030145;28;20460;-80
2023/09/22 02:57:34;;;;;;;1.40;0.97;;;;;;;16.79;nan;98233.88;5047336;28;20969;-79
2023/09/22 03:00:00;;;;;;;1.77;1.00;;;;;;;16.80;nan;98217.00;5051659;28;20458;-79
2023/09/22 03:02:25;;;;;;;1.30;1.10;;;;;;;16.80;nan;98220.47;5052477;28;20497;-80
2023/09/22 03:04:51;;;;;;;1.03;0.83;;;;;;;16.79;nan;98221.44;5050495;28;20196;-80
2023/09/22 03:07:16;;;;;;;1.10;0.90;;;;;;;16.81;nan;98226.59;5047191;28;20483;-79
2023/09/22 03:09:42;;;;;;;5.27;0.87;;;;;;;16.80;nan;98224.94;5027932;28;20682;-79
2023/09/22 03:12:08;;;;;;;1.20;0.80;;;;;;;16.80;nan;98231.06;5028764;28;20194;-80
2023/09/22 03:14:34;;;;;;;1.30;0.97;;;;;;;16.82;nan;98238.84;5044307;28;21179;-79
2023/09/22 03:17:00;;;;;;;1.43;0.90;;;;;;;16.83;nan;98245.81;5045142;28;20178;-79
2023/09/22 03:19:26;;;;;;;0.97;0.87;;;;;;;16.85;nan;98227.91;5046833;28;20441;-80
2023/09/22 03:21:51;;;;;;;1.00;0.70;;;;;;;16.85;nan;98238.53;5048118;28;20190;-79
2023/09/22 03:24:17;;;;;;;2.00;0.90;;;;;;;16.84;nan;98220.94;5049547;28;20189;-80
2023/09/22 03:26:42;;;;;;;1.53;0.73;;;;;;;16.85;nan;98212.00;5034881;28;20208;-81
2023/09/22 03:29:08;;;;;;;1.40;1.00;;;;;;;16.88;nan;98219.63;5035580;28;20223;-79
2023/09/22 03:31:36;;;;;;;1.00;0.90;;;;;;;16.88;nan;98227.56;5054531;28;20198;-79
2023/09/22 03:34:02;;;;;;;1.13;0.90;;;;;;;16.90;nan;98214.13;5032513;28;20463;-80
2023/09/22 03:36:30;;;;;;;1.40;0.80;;;;;;;16.92;nan;98218.25;5046353;28;20415;-79
2023/09/22 03:38:57;;;;;;;2.77;1.13;;;;;;;16.93;nan;98221.72;5033272;28;20205;-79
2023/09/22 03:41:28;;;;;;;1.53;0.80;;;;;;;16.92;nan;98226.22;5052943;28;20588;-79
2023/09/22 03:43:54;;;;;;;1.37;0.70;;;;;;;16.91;nan;98237.84;5057142;28;21046;-79
2023/09/22 03:46:20;;;;;;;1.20;0.80;;;;;;;16.91;nan;98245.78;5057052;28;20485;-80
2023/09/22 03:48:48;;;;;;;0.80;0.73;;;;;;;16.90;nan;98252.06;5041310;28;20447;-79
2023/09/22 03:51:16;;;;;;;2.93;0.70;;;;;;;16.86;nan;98253.44;5041808;28;20286;-79
2023/09/22 03:53:42;;;;;;;1.47;0.77;;;;;;;16.84;nan;98252.75;5046306;28;20466;-78
2023/09/22 03:56:09;;;;;;;1.00;0.80;;;;;;;16.85;nan;98256.22;5043733;28;20572;-79
2023/09/22 03:58:35;;;;;;;0.97;0.73;;;;;;;16.84;nan;98271.31;5049306;28;20230;-79
2023/09/22 04:01:08;;;;;;;0.70;0.70;;;;;;;16.86;nan;98271.16;5064036;28;20527;-79
2023/09/22 04:03:34;;;;;;;1.43;0.73;;;;;;;16.88;nan;98275.31;5034302;28;20199;-79
2023/09/22 04:06:01;;;;;;;0.70;0.70;;;;;;;16.89;nan;98278.78;5027628;28;20436;-79
2023/09/22 04:08:29;;;;;;;3.70;1.27;;;;;;;16.90;nan;98278.59;5049569;28;20189;-80
2023/09/22 04:10:55;;;;;;;2.40;0.90;;;;;;;16.92;nan;98265.19;5050035;28;20856;-80
2023/09/22 04:13:24;;;;;;;2.40;0.80;;;;;;;16.92;nan;98260.69;5032887;28;20439;-79
2023/09/22 04:15:59;;;;;;;1.67;0.90;;;;;;;16.92;nan;98260.69;5045645;28;20477;-81
2023/09/22 04:18:29;;;;;;;0.80;0.80;;;;;;;16.91;nan;98259.06;5047228;28;20446;-80
2023/09/22 04:20:56;;;;;;;0.90;0.80;;;;;;;16.93;nan;98242.94;5052380;28;20516;-79
2023/09/22 04:23:22;;;;;;;2.30;0.90;;;;;;;16.94;nan;98234.00;5048646;28;20549;-79
2023/09/22 04:25:53;;;;;;;0.90;0.80;;;;;;;16.95;nan;98228.50;5050476;28;20495;-79
2023/09/22 04:28:23;;;;;;;1.00;0.83;;;;;;;16.97;nan;98223.88;5051805;28;20455;-80
2023/09/22 04:30:49;;;;;;;0.93;0.90;;;;;;;17.01;nan;98217.25;5046135;28;20524;-79
2023/09/22 04:33:15;;;;;;;0.93;0.73;;;;;;;17.02;nan;98223.38;5051027;28;20451;-80
2023/09/22 04:35:41;;;;;;;1.60;0.90;;;;;;;17.04;nan;98237.28;5029964;28;20453;-79
2023/09/22 04:38:08;;;;;;;0.80;0.70;;;;;;;17.05;nan;98257.50;5048172;28;20447;-80
2023/09/22 04:40:38;;;;;;;1.23;0.90;;;;;;;17.05;nan;98272.59;5029368;28;20468;-79
2023/09/22 04:43:06;;;;;;;1.83;0.90;;;;;;;17.06;nan;98271.59;5052426;28;20477;-79
2023/09/22 04:45:40;;;;;;;1.30;0.90;;;;;;;17.06;nan;98271.59;5047661;28;20542;-79
2023/09/22 04:48:09;;;;;;;3.33;1.10;;;;;;;17.08;nan;98296.13;5049125;28;20451;-80
2023/09/22 04:50:35;;;;;;;2.57;0.93;;;;;;;17.09;nan;98289.81;5046562;28;20482;-79
2023/09/22 04:53:00;;;;;;;1.30;0.90;;;;;;;17.09;nan;98289.81;5043431;28;20863;-80
2023/09/22 04:55:29;;;;;;;1.67;1.00;;;;;;;17.08;nan;98277.56;5050025;28;20717;-80
2023/09/22 04:57:56;;;;;;;2.03;1.00;;;;;;;17.08;nan;98285.50;5047209;28;20603;-79
2023/09/22 05:00:24;;;;;;;1.20;0.80;;;;;;;17.08;nan;98281.03;5044990;28;20566;-80
2023/09/22 05:02:53;;;;;;;1.43;0.87;;;;;;;17.08;nan;98277.56;5047856;28;20461;-80
2023/09/22 05:05:19;;;;;;;1.00;0.70;;;;;;;17.07;nan;98279.38;5032475;28;21033;-80
2023/09/22 05:07:47;;;;;;;0.80;0.80;;;;;;;17.08;nan;98288.16;5031215;28;20515;-80
2023/09/22 05:10:13;;;;;;;1.30;0.70;;;;;;;17.09;nan;98303.06;5044595;28;20462;-79
2023/09/22 05:12:38;;;;;;;1.20;0.90;;;;;;;17.09;nan;98317.16;5046141;28;20451;-80
2023/09/22 05:15:05;;;;;;;1.33;0.97;;;;;;;17.09;nan;98325.13;5049828;28;20215;-79
2023/09/22 05:17:30;;;;;;;1.23;1.13;;;;;;;17.10;nan;98342.72;5045437;28;20208;-80
2023/09/22 05:19:56;;;;;;;0.80;0.80;;;;;;;17.10;nan;98333.94;5048068;28;20828;-79
2023/09/22 05:22:22;;;;;;;1.20;0.80;;;;;;;17.10;nan;98344.53;5042921;28;20570;-79
2023/09/22 05:24:48;;;;;;;1.60;1.20;;;;;;;17.10;nan;98341.91;5045438;28;20965;-79
2023/09/22 05:27:15;;;;;;;1.97;0.80;;;;;;;17.10;nan;98339.25;5042047;28;20475;-80
2023/09/22 05:29:41;;;;;;;1.27;0.80;;;;;;;17.11;nan;98335.56;5045376;28;20244;-80
2023/09/22 05:32:08;;;;;;;1.43;1.10;;;;;;;17.09;nan;98340.22;5044896;28;20448;-79
2023/09/22 05:34:33;;;;;;;1.53;0.97;;;;;;;17.09;nan;98338.38;5048495;28;20468;-80
2023/09/22 05:37:00;;;;;;;1.20;0.87;;;;;;;17.08;nan;98333.28;5048098;28;20799;-80
2023/09/22 05:39:26;;;;;;;1.53;1.17;;;;;;;17.03;nan;98350.50;5036990;28;20210;-79
2023/09/22 05:41:52;;;;;;;1.50;1.00;;;;;;;17.01;nan;98339.25;5044398;28;20455;-79
2023/09/22 05:44:17;;;;;;;1.50;0.80;;;;;;;16.95;nan;98334.63;5047522;28;21037;-80
2023/09/22 05:46:44;;;;;;;3.20;0.93;;;;;;;16.91;nan;98335.97;5042736;28;20193;-79
2023/09/22 05:49:14;;;;;;;1.77;1.10;;;;;;;16.88;nan;98323.03;5045626;28;20204;-79
2023/09/22 05:51:43;;;;;;;1.00;0.80;;;;;;;16.81;nan;98317.56;5047014;28;20441;-79
2023/09/22 05:54:09;;;;;;;1.20;1.00;;;;;;;16.77;nan;98340.13;5044824;28;20475;-79
2023/09/22 05:56:35;;;;;;;1.57;1.00;;;;;;;16.75;nan;98352.69;5041394;28;20454;-80
2023/09/22 05:59:01;;;;;;;1.10;0.80;;;;;;;16.75;nan;98349.22;5044558;28;20210;-79
2023/09/22 06:01:27;;;;;;;1.03;0.93;;;;;;;16.73;nan;98354.69;5039471;28;21379;-79
2023/09/22 06:03:53;;;;;;;1.30;0.90;;;;;;;16.72;nan;98354.88;5037509;28;20509;-80
2023/09/22 06:06:19;;;;;;;1.80;1.00;;;;;;;16.70;nan;98351.53;5037248;28;20460;-79
2023/09/22 06:08:45;;;;;;;2.10;1.00;;;;;;;16.68;nan;98356.19;5044598;28;20966;-78
2023/09/22 06:11:11;;;;;;;1.27;0.90;;;;;;;16.66;nan;98347.56;5043149;28;20217;-78
2023/09/22 06:13:38;;;;;;;3.77;2.90;;;;;;;16.64;nan;98357.53;5041080;28;20210;-79
2023/09/22 06:16:04;;;;;;;1.53;1.10;;;;;;;16.64;nan;98358.34;5044794;28;20471;-85
2023/09/22 06:18:30;;;;;;;1.70;1.30;;;;;;;16.62;nan;98357.69;5048660;28;20478;-88
2023/09/22 06:20:58;;;;;;;1.40;1.13;;;;;;;16.60;nan;98375.56;5045569;28;20449;-88
2023/09/22 06:23:25;;;;;;;1.83;1.10;;;;;;;16.56;nan;98367.13;5046426;28;20459;-84
2023/09/22 06:26:00;;;;;;;3.43;1.27;;;;;;;16.55;nan;98378.75;5050099;28;20201;-88
2023/09/22 06:28:38;;;;;;;3.93;0.93;;;;;;;16.51;nan;98382.69;5026691;28;20454;-89
2023/09/22 06:31:14;;;;;;;2.27;1.17;;;;;;;16.46;nan;98389.50;5041599;28;20460;-85
2023/09/22 06:33:39;;;;;;;3.37;0.90;;;;;;;16.42;nan;98380.19;5043857;28;20537;-88
2023/09/22 06:36:08;;;;;;;2.13;1.10;;;;;;;16.36;nan;98376.38;5045884;28;20190;-85
2023/09/22 06:38:34;;;;;;;1.57;0.70;;;;;;;16.32;nan;98377.72;5044463;28;20750;-85
2023/09/22 06:41:00;;;;;;;2.20;0.80;;;;;;;16.26;nan;98381.03;5045476;28;20487;-84
2023/09/22 06:43:26;;;;;;;1.50;1.00;;;;;;;16.21;nan;98381.53;5037831;28;20553;-84
2023/09/22 06:45:53;;;;;;;1.20;0.90;;;;;;;16.20;nan;98393.09;5037833;28;20871;-82
2023/09/22 06:48:22;;;;;;;1.23;0.83;;;;;;;16.20;nan;98392.25;5042723;28;20443;-84
2023/09/22 06:50:51;;;;;;;0.90;0.80;;;;;;;16.18;nan;98386.31;5035632;28;20463;-84
2023/09/22 06:53:18;;;;;;;2.45;2.17;;;;;;;16.13;nan;98392.94;5034973;28;21143;-83
2023/09/22 06:55:44;;;;;;;1.17;1.00;;;;;;;16.11;nan;98404.69;5039358;28;20219;-84
2023/09/22 06:58:09;;;;;;;1.97;1.10;;;;;;;16.12;nan;98406.31;5042332;28;20195;-83
2023/09/22 07:00:34;;;;;;;2.60;0.80;;;;;;;16.10;nan;98403.84;5036022;28;21001;-82
2023/09/22 07:03:00;;;;;;;1.07;1.00;;;;;;;16.13;nan;98395.56;5035183;28;20798;-83
2023/09/22 07:05:25;;;;;;;4.07;1.00;;;;;;;16.13;nan;98392.94;5026313;28;20237;-81
2023/09/22 07:07:52;;;;;;;1.20;0.83;;;;;;;16.13;nan;98403.53;5039620;28;20687;-81
2023/09/22 07:10:18;;;;;;;2.73;1.20;;;;;;;16.17;nan;98408.50;5039221;28;20767;-81
2023/09/22 07:12:44;;;;;;;3.20;0.70;;;;;;;16.20;nan;98408.16;5046439;28;20454;-81
2023/09/22 07:15:10;;;;;;;4.30;1.00;;;;;;;16.23;nan;98411.34;5044210;28;20914;-81
2023/09/22 07:17:36;;;;;;;1.30;0.80;;;;;;;16.27;nan;98427.72;5040195;28;20560;-81
2023/09/22 07:20:04;;;;;;;1.83;1.00;;;;;;;16.29;nan;98426.56;5040719;28;20509;-80
2023/09/22 07:22:32;;;;;;;2.40;1.00;;;;;;;16.33;nan;98433.19;5043008;28;20450;-80
2023/09/22 07:24:58;;;;;;;1.23;0.90;;;;;;;16.41;nan;98429.72;5043282;28;20218;-80
2023/09/22 07:27:24;;;;;;;1.63;0.77;;;;;;;16.46;nan;98427.41;5045045;28;20212;-80
2023/09/22 07:29:50;;;;;;;3.33;1.30;;;;;;;16.58;nan;98428.78;5038940;28;20247;-80
2023/09/22 07:32:16;;;;;;;0.90;0.80;;;;;;;16.78;nan;98418.69;5044750;28;20201;-80
2023/09/22 07:34:42;;;;;;;1.30;1.00;;;;;;;16.92;nan;98419.00;5042885;28;20224;-80
2023/09/22 07:37:11;;;;;;;1.00;0.70;;;;;;;17.03;nan;98416.84;5043021;28;20521;-80
2023/09/22 07:39:37;;;;;;;4.00;0.93;;;;;;;17.13;nan;98413.19;5046570;28;20216;-80
2023/09/22 07:42:04;;;;;;;3.00;0.97;;;;;;;17.20;nan;98416.81;5051006;28;20422;-79
2023/09/22 07:44:30;;;;;;;2.47;1.30;;;;;;;17.23;nan;98404.03;5046784;28;20517;-80
2023/09/22 07:46:58;;;;;;;6.73;1.00;;;;;;;17.23;nan;98406.69;5044557;28;20454;-80
2023/09/22 07:49:25;;;;;;;1.00;0.90;;;;;;;17.26;nan;98410.84;5047473;28;20465;-80
2023/09/22 07:51:51;;;;;;;0.97;0.73;;;;;;;17.29;nan;98407.84;5045653;28;20456;-79
2023/09/22 07:54:18;;;;;;;1.97;1.23;;;;;;;17.33;nan;98408.31;5048001;28;20475;-80
2023/09/22 07:56:46;;;;;;;1.77;0.80;;;;;;;17.45;nan;98417.59;5043649;28;20191;-81
2023/09/22 07:59:13;;;;;;;1.33;1.00;;;;;;;17.53;nan;98422.06;5040689;28;20939;-80
2023/09/22 08:01:42;;;;;;;1.30;0.77;;;;;;;17.58;nan;98425.00;5043110;28;20485;-80
2023/09/22 08:04:08;;;;;;;1.43;0.90;;;;;;;17.60;nan;98425.66;5046431;28;20842;-80
2023/09/22 08:06:34;;;;;;;2.07;0.80;;;;;;;17.63;nan;98431.47;5048883;28;20457;-81
2023/09/22 08:09:00;;;;;;;1.20;1.03;;;;;;;17.68;nan;98434.41;5048833;28;20486;-80
2023/09/22 08:11:26;;;;;;;1.30;1.20;;;;;;;17.75;nan;98426.59;5052268;28;20761;-80
2023/09/22 08:13:51;;;;;;;1.00;0.80;;;;;;;17.79;nan;98433.25;5047585;28;21236;-81
2023/09/22 08:16:18;;;;;;;1.17;0.70;;;;;;;17.97;nan;98429.53;5046992;28;20351;-79
2023/09/22 08:18:44;;;;;;;1.17;0.97;;;;;;;18.24;nan;98429.03;5046775;28;20202;-80
2023/09/22 08:21:09;;;;;;;2.93;1.30;;;;;;;18.41;nan;98431.59;5045661;28;20858;-80
2023/09/22 08:23:35;;;;;;;2.27;1.00;;;;;;;18.45;nan;98427.59;5029480;28;20201;-80
2023/09/22 08:26:08;;;;;;;1.87;0.77;;;;;;;18.45;nan;98424.94;5046887;28;20223;-80
2023/09/22 08:28:33;;;;;;;1.00;0.90;;;;;;;18.36;nan;98437.44;5050169;28;20214;-80
2023/09/22 08:30:59;;;;;;;1.37;0.90;;;;;;;18.32;nan;98434.31;5054466;28;20447;-79
2023/09/22 08:33:25;;;;;;;1.47;0.90;;;;;;;18.34;nan;98434.97;5047945;28;20572;-80
2023/09/22 08:35:51;;;;;;;1.85;0.80;;;;;;;18.42;nan;98428.78;5048666;28;20439;-79
2023/09/22 08:38:18;;;;;;;2.30;1.00;;;;;;;18.52;nan;98447.13;5053499;28;20961;-80
2023/09/22 08:40:47;;;;;;;2.07;1.00;;;;;;;18.53;nan;98441.66;5052186;28;20452;-80
2023/09/22 08:43:12;;;;;;;1.23;0.83;;;;;;;18.47;nan;98452.16;5051597;28;20783;-80
2023/09/22 08:45:38;;;;;;;2.60;1.00;;;;;;;18.41;nan;98448.38;5056135;28;20878;-80
2023/09/22 08:48:04;;;;;;;1.37;1.10;;;;;;;18.44;nan;98455.16;5059206;28;20455;-80
2023/09/22 08:50:30;;;;;;;3.23;0.97;;;;;;;18.87;nan;98455.56;5056040;28;20235;-79
2023/09/22 08:52:57;;;;;;;1.37;0.80;;;;;;;19.64;nan;98445.47;5055434;28;20769;-80
2023/09/22 08:55:23;;;;;;;1.57;0.87;;;;;;;20.59;nan;98445.63;5052522;28;20774;-80
2023/09/22 08:57:50;;;;;;;5.77;1.20;;;;;;;21.26;nan;98447.84;5054405;28;20524;-80
2023/09/22 09:00:26;;;;;;;1.10;0.73;;;;;;;21.50;nan;98441.25;5056718;28;20516;-80
2023/09/22 09:02:54;;;;;;;1.83;1.03;;;;;;;21.80;nan;98441.00;5053336;28;20444;-80
2023/09/22 09:05:21;;;;;;;2.20;1.10;;;;;;;21.99;nan;98434.09;5053147;28;20459;-80
2023/09/22 09:07:48;;;;;;;5.80;1.00;;;;;;;22.10;nan;98436.19;5057167;28;20455;-80
2023/09/22 09:10:28;;;;;;;1.50;1.03;;;;;;;22.17;nan;98433.53;5052388;28;20539;-80
2023/09/22 09:12:55;;;;;;;1.67;0.90;;;;;;;22.30;nan;98437.13;5043469;28;20435;-80
2023/09/22 09:15:27;;;;;;;4.60;0.93;;;;;;;22.30;nan;98431.78;5042861;28;20538;-79
2023/09/22 09:18:04;;;;;;;2.77;1.07;;;;;;;22.26;nan;98435.03;5047524;28;20444;-79
2023/09/22 09:20:34;;;;;;;1.20;0.80;;;;;;;22.12;nan;98427.97;5044792;28;20431;-80
2023/09/22 09:23:11;;;;;;;5.37;0.80;;;;;;;21.91;nan;98436.94;5040205;28;20815;-80
2023/09/22 09:25:41;;;;;;;3.10;0.90;;;;;;;21.71;nan;98429.66;5042012;28;20432;-79
2023/09/22 09:28:06;;;;;;;1.80;0.80;;;;;;;21.68;nan;98421.19;5048612;28;20957;-80
2023/09/22 09:30:32;;;;;;;1.90;0.90;;;;;;;21.56;nan;98419.09;5044633;28;20674;-80
2023/09/22 09:33:10;;;;;;;1.20;0.73;;;;;;;21.63;nan;98421.81;5044959;28;20200;-79
2023/09/22 09:35:38;;;;;;;1.73;1.20;;;;;;;21.75;nan;98430.91;5041740;28;20187;-80
2023/09/22 09:38:05;;;;;;;1.00;0.73;;;;;;;21.79;nan;98428.66;5044893;28;20465;-80
2023/09/22 09:40:32;;;;;;;2.67;1.30;;;;;;;21.81;nan;98432.78;5045309;28;20759;-81
2023/09/22 09:43:00;;;;;;;2.70;1.03;;;;;;;21.91;nan;98436.94;5044098;28;21005;-80
2023/09/22 09:45:30;;;;;;;1.17;0.90;;;;;;;22.06;nan;98441.13;5040411;28;20439;-80
2023/09/22 09:47:58;;;;;;;3.43;1.10;;;;;;;22.20;nan;98435.84;5046715;28;20538;-80
2023/09/22 09:50:25;;;;;;;1.70;1.27;;;;;;;22.23;nan;98436.28;5047205;28;20555;-79
2023/09/22 09:52:51;;;;;;;1.23;0.87;;;;;;;21.97;nan;98447.66;5045403;28;20436;-83
2023/09/22 09:55:18;;;;;;;1.60;0.90;;;;;;;21.68;nan;98443.41;5043441;28;20510;-79
2023/09/22 09:57:44;;;;;;;4.43;1.30;;;;;;;21.39;nan;98452.50;5042768;28;20457;-85
2023/09/22 10:00:19;;;;;;;2.00;0.90;;;;;;;21.10;nan;98446.28;5042767;28;20978;-84
2023/09/22 10:02:47;;;;;;;1.63;1.07;;;;;;;20.93;nan;98440.41;5044400;28;20533;-83
2023/09/22 10:05:20;;;;;;;1.33;1.00;;;;;;;20.81;nan;98439.25;5045400;28;20459;-78
2023/09/22 10:07:48;;;;;;;2.43;0.93;;;;;;;20.68;nan;98442.63;5041005;28;20983;-84
2023/09/22 10:10:16;;;;;;;1.77;0.90;;;;;;;20.58;nan;98438.63;5044175;28;20463;-79
2023/09/22 10:12:43;;;;;;;1.10;0.90;;;;;;;20.53;nan;98439.19;5041677;28;20428;-82
2023/09/22 10:15:13;;;;;;;1.83;1.07;;;;;;;20.49;nan;98443.22;5039464;28;20998;-80
2023/09/22 10:17:38;;;;;;;2.17;1.10;;;;;;;20.46;nan;98447.09;5045184;28;20442;-81
2023/09/22 10:20:13;;;;;;;1.53;0.90;;;;;;;20.43;nan;98444.81;5044550;28;20729;-82
2023/09/22 10:22:39;;;;;;;1.87;1.33;;;;;;;20.49;nan;98454.72;5040980;28;20428;-80
2023/09/22 10:25:11;;;;;;;3.33;1.10;;;;;;;20.47;nan;98456.78;5041112;28;20580;-85
2023/09/22 10:28:00;;;;;;;1.00;0.80;;;;;;;20.39;nan;98448.91;5033603;28;20838;-80
2023/09/22 10:30:45;;;;;;;4.90;1.30;;;;;;;20.51;nan;98442.03;5040076;28;21121;-84
2023/09/22 10:33:23;;;;;;;3.60;1.43;;;;;;;20.65;nan;98442.19;5039172;28;20451;-79
2023/09/22 10:35:49;;;;;;;5.40;1.27;;;;;;;20.69;nan;98435.47;5036278;28;20517;-80
2023/09/22 10:38:15;;;;;;;1.90;1.00;;;;;;;20.70;nan;98437.94;5025574;28;20540;-83
2023/09/22 10:40:59;;;;;;;1.33;1.00;;;;;;;20.67;nan;98440.97;5042904;28;20259;-83
2023/09/22 10:43:26;;;;;;;2.43;1.40;;;;;;;20.61;nan;98451.59;5041213;28;20824;-83
2023/09/22 10:45:52;;;;;;;1.57;1.47;;;;;;;20.56;nan;98454.84;5043240;28;20411;-82
2023/09/22 10:48:18;;;;;;;1.30;0.90;;;;;;;20.57;nan;98455.66;5045314;28;20434;-79
2023/09/22 10:50:49;;;;;;;1.83;1.73;;;;;;;20.57;nan;98456.47;5041101;28;20450;-84
2023/09/22 10:53:14;;;;;;;1.43;0.90;;;;;;;20.55;nan;98456.69;5038497;28;21029;-78
2023/09/22 10:55:42;;;;;;;3.77;1.57;;;;;;;20.49;nan;98449.38;5040945;28;20469;-82
2023/09/22 10:58:16;;;;;;;4.47;2.17;;;;;;;20.52;nan;98446.38;5039978;28;20208;-83
2023/09/22 11:00:57;;;;;;;4.13;2.00;;;;;;;20.70;nan;98443.25;5042325;28;20444;-83
2023/09/22 11:03:25;;;;;;;3.23;1.00;;;;;;;20.98;nan;98434.47;5039716;28;20459;-83
2023/09/22 11:06:06;;;;;;;3.33;1.47;;;;;;;21.18;nan;98415.94;5037199;28;20427;-81
2023/09/22 11:08:32;;;;;;;2.40;1.10;;;;;;;21.38;nan;98422.25;5039868;28;21040;-78
2023/09/22 11:10:58;;;;;;;2.80;1.00;;;;;;;21.57;nan;98417.22;5045663;28;20524;-80
2023/09/22 11:13:24;;;;;;;1.40;1.10;;;;;;;21.66;nan;98410.72;5039374;28;20541;-80
2023/09/22 11:15:56;;;;;;;3.23;1.00;;;;;;;21.67;nan;98412.34;5037436;28;20242;-78
2023/09/22 11:18:24;;;;;;;1.67;1.10;;;;;;;21.67;nan;98419.56;5038651;28;20463;-80
2023/09/22 11:21:05;;;;;;;2.90;1.07;;;;;;;21.74;nan;98431.09;5038607;28;20453;-81
2023/09/22 11:23:32;;;;;;;1.30;1.20;;;;;;;21.77;nan;98420.84;5036803;28;20451;-80
2023/09/22 11:26:12;;;;;;;1.27;0.90;;;;;;;21.75;nan;98422.88;5036712;28;20543;-82
2023/09/22 11:28:45;;;;;;;1.17;1.00;;;;;;;21.79;nan;98409.94;5036328;28;21080;-82
2023/09/22 11:31:18;;;;;;;2.57;1.50;;;;;;;21.84;nan;98404.81;5037645;28;20778;-79
2023/09/22 11:33:45;;;;;;;1.83;1.00;;;;;;;21.78;nan;98411.78;5021348;28;20823;-81
2023/09/22 11:36:11;;;;;;;2.50;1.20;;;;;;;21.71;nan;98402.94;5040277;28;21025;-80
2023/09/22 11:38:43;;;;;;;1.33;0.90;;;;;;;21.67;nan;98407.00;5038363;28;20431;-80
2023/09/22 11:41:10;;;;;;;5.23;1.20;;;;;;;21.62;nan;98390.75;5039300;28;20504;-81
2023/09/22 11:43:54;;;;;;;2.30;1.03;;;;;;;21.60;nan;98398.13;5038748;28;20538;-83
2023/09/22 11:46:23;;;;;;;2.53;1.50;;;;;;;21.59;nan;98391.16;5037300;28;20553;-80
2023/09/22 11:49:05;;;;;;;4.40;1.17;;;;;;;21.59;nan;98396.50;5040744;28;20592;-79
2023/09/22 11:51:40;;;;;;;2.17;1.20;;;;;;;21.65;nan;98391.16;5039286;28;20474;-79
2023/09/22 11:54:09;;;;;;;3.33;1.70;;;;;;;21.74;nan;98394.53;5037962;28;20789;-83